Time;durP1;ratioP1;P1;durP2;ratioP2;P2;SDS_P1;SDS_P2;PMS_P1;PMS_P2;Temp;Humidity;BMP_temperature;BMP_pressure;BME280_temperature;BME280_humidity;BME280_pressure;Samples;Min_cycle;Max_cycle;Signal;HPM_P1;HPM_P2
2022/01/10 00:05:43;;;;;;;;;;;7.20;99.90;;;;;;4960876;28;19922;-96
2022/01/10 00:08:14;;;;;;;;;;;7.00;99.90;;;;;;4954833;28;20113;-95
2022/01/10 00:10:44;;;;;;;;;;;7.00;99.90;;;;;;4942516;29;19962;-96
2022/01/10 00:13:16;;;;;;;;;;;7.10;99.90;;;;;;4957111;28;19927;-96
2022/01/10 00:18:36;;;;;;;;;;;7.20;99.90;;;;;;4975380;28;19923;-96
2022/01/10 00:21:23;;;;;;;;;;;7.20;99.90;;;;;;4943730;29;19922;-96
2022/01/10 00:23:58;;;;;;;;;;;7.10;99.90;;;;;;4964616;28;19975;-96
2022/01/10 00:29:25;;;;;;;;;;;7.10;99.90;;;;;;4968551;28;20017;-96
2022/01/10 00:34:57;;;;;;;;;;;6.90;99.90;;;;;;4950343;28;19995;-96
2022/01/10 00:37:31;;;;;;;;;;;6.80;99.90;;;;;;4947527;28;19986;-97
2022/01/10 00:40:05;;;;;;;;;;;7.00;99.90;;;;;;4950010;28;20159;-96
2022/01/10 00:42:36;;;;;;;;;;;7.10;99.90;;;;;;4944830;29;20470;-96
2022/01/10 00:48:13;;;;;;;;;;;7.10;99.90;;;;;;4954933;28;20005;-96
2022/01/10 00:50:58;;;;;;;;;;;7.10;99.90;;;;;;4942365;29;19922;-95
2022/01/10 00:56:46;;;;;;;;;;;7.20;99.90;;;;;;4947715;28;19923;-96
2022/01/10 00:59:15;;;;;;;;;;;7.00;99.90;;;;;;4930849;28;20361;-95
2022/01/10 01:02:10;;;;;;;;;;;7.00;99.90;;;;;;4953202;28;19922;-96
2022/01/10 01:04:58;;;;;;;;;;;6.90;99.90;;;;;;4953482;28;19946;-96
2022/01/10 01:07:28;;;;;;;;;;;6.90;99.90;;;;;;4935173;28;19927;-96
2022/01/10 01:10:22;;;;;;;;;;;6.80;99.90;;;;;;4934966;28;19923;-95
2022/01/10 05:33:04;;;;;;;;;;;6.60;99.90;;;;;;4913150;29;19923;-80
2022/01/10 05:36:13;;;;;;;;;;;6.60;99.90;;;;;;4910254;29;19937;-74
2022/01/10 05:38:47;;;;;;;;;;;6.50;99.90;;;;;;4913538;29;19923;-74
2022/01/10 05:44:46;;;;;;;;;;;6.60;99.90;;;;;;4874602;29;19931;-73
2022/01/10 05:47:17;;;;;;;;;;;6.60;99.90;;;;;;4868265;29;19981;-79
2022/01/10 05:49:48;;;;;;;;;;;6.60;99.90;;;;;;4862205;29;19989;-72
2022/01/10 05:52:55;;;;;;;;;;;6.60;99.90;;;;;;4871601;29;19944;-73
2022/01/10 05:55:29;;;;;;;;;;;6.60;99.90;;;;;;4848045;29;19923;-78
2022/01/10 05:58:17;;;;;;;;;;;6.70;99.90;;;;;;4871318;29;19935;-72
2022/01/10 06:00:47;;;;;;;;;;;6.70;99.90;;;;;;4858456;29;19932;-78
2022/01/10 06:03:28;;;;;;;;;;;6.80;99.90;;;;;;4885097;29;19924;-80
2022/01/10 06:10:35;;;;;;;;;;;6.70;99.90;;;;;;4836006;29;19980;-76
2022/01/10 06:19:19;;;;;;;;;;;6.70;99.90;;;;;;5154651;23;19919;-75
2022/01/10 06:21:57;;;;;;;;;;;6.70;99.90;;;;;;4925832;29;19934;-80
2022/01/10 06:24:35;;;;;;;;;;;6.70;99.90;;;;;;5104959;23;19923;-80
2022/01/10 07:27:22;;;;;;;;;;;;;;;;;;5118989;27;19920;-70
2022/01/10 07:29:51;;;;;;;;;;;;;;;;;;5119126;28;19924;-70
2022/01/10 07:32:21;;;;;;;;;;;;;;;;;;5085037;27;20414;-70
2022/01/10 07:34:50;;;;;;;;;;;;;;;;;;5080197;28;20302;-70
2022/01/10 07:37:20;;;;;;;;;;;;;;;;;;5081304;28;19936;-70
2022/01/10 07:39:48;;;;;;;;;;;;;;;;;;5085006;28;19933;-70
2022/01/10 07:42:17;;;;;;;;;;;;;;;;;;5065894;28;19933;-70
2022/01/10 07:44:50;;;;;;;;;;;;;;;;;;5078398;28;20398;-70
2022/01/10 07:47:19;;;;;;;;;;;;;;;;;;5076547;28;19928;-70
2022/01/10 07:49:47;;;;;;;;;;;;;;;;;;5079055;28;20441;-70
2022/01/10 07:52:16;;;;;;;;;;;;;;;;;;5080177;28;19936;-70
2022/01/10 07:54:45;;;;;;;;;;;;;;;;;;5058291;28;19967;-70
2022/01/10 07:57:19;;;;;;;;;;;;;;;;;;5084231;28;20015;-70
2022/01/10 07:59:48;;;;;;;;;;;;;;;;;;5077877;28;20004;-70
2022/01/10 08:02:16;;;;;;;;;;;;;;;;;;5078451;28;19932;-70
2022/01/10 08:04:45;;;;;;;;;;;;;;;;;;5096138;28;19924;-70
2022/01/10 08:07:13;;;;;;;;;;;;;;;;;;5085696;28;20390;-70
2022/01/10 08:09:42;;;;;;;;;;;;;;;;;;5079686;28;19928;-70
2022/01/10 08:12:36;;;;;;;;;;;;;;;;;;5080599;28;19925;-70
2022/01/10 08:15:05;;;;;;;;;;;;;;;;;;5077185;28;19924;-70
2022/01/10 08:17:34;;;;;;;;;;;;;;;;;;5081197;28;19925;-70
2022/01/10 08:20:02;;;;;;;;;;;;;;;;;;5077667;28;19928;-70
2022/01/10 08:22:31;;;;;;;;;;;;;;;;;;5082975;28;19933;-70
2022/01/10 08:27:54;;;;;;;;;;;;;;;;;;5068617;28;19947;-70
2022/01/10 08:30:22;;;;;;;;;;;;;;;;;;5060310;28;19971;-70
2022/01/10 08:32:51;;;;;;;;;;;;;;;;;;5081471;28;20430;-70
2022/01/10 08:35:19;;;;;;;;;;;;;;;;;;5064146;28;20033;-70
2022/01/10 08:37:48;;;;;;;;;;;;;;;;;;5063819;28;20011;-70
2022/01/10 08:40:17;;;;;;;;;;;;;;;;;;5069467;28;19985;-70
2022/01/10 08:42:46;;;;;;;;;;;;;;;;;;5066411;28;19936;-70
2022/01/10 08:45:14;;;;;;;;;;;;;;;;;;5061204;28;19924;-70
2022/01/10 08:47:43;;;;;;;;;;;;;;;;;;5064131;28;19932;-70
2022/01/10 08:50:11;;;;;;;;;;;;;;;;;;5065621;28;19978;-70
2022/01/10 08:54:49;;;;;;;9.35;3.72;;;;;;;;;;5133655;27;20421;-78
2022/01/10 08:57:18;;;;;;;6.93;3.47;;;;;;;;;;5099416;28;20067;-77
2022/01/10 08:59:48;;;;;;;7.22;3.33;;;;;;;;;;5124496;28;20721;-77
2022/01/10 09:02:17;;;;;;;8.07;3.23;;;;;;;;;;5065497;28;20140;-78
2022/01/10 09:04:46;;;;;;;5.97;3.00;;;;;;;;;;5062529;28;20071;-77
2022/01/10 09:07:15;;;;;;;10.77;3.67;;;;;;;;;;5067172;28;20070;-78
2022/01/10 09:09:45;;;;;;;6.97;2.80;;;;;;;;;;5062152;28;20040;-78
2022/01/10 09:12:16;;;;;;;8.52;3.72;;;;;;;;;;5081823;28;20071;-78
2022/01/10 09:14:45;;;;;;;8.70;3.10;;;;;;;;;;5061594;28;20083;-78
2022/01/10 09:17:15;;;;;;;14.52;3.53;;;;;;;;;;5068192;28;20106;-77
2022/01/10 09:19:46;;;;;;;8.63;3.75;;;;;;;;;;5077845;28;20040;-77
2022/01/10 09:22:16;;;;;;;7.05;2.95;;;;;;;;;;5082122;28;20098;-78
2022/01/10 09:24:51;;;;;;;12.70;3.20;;;;;;;;;;5082480;28;20036;-77
2022/01/10 09:27:21;;;;;;;14.27;3.30;;;;;;;;;;5078682;28;20123;-78
2022/01/10 09:29:51;;;;;;;9.23;2.55;;;;;;;;;;5076385;28;20138;-77
2022/01/10 09:32:20;;;;;;;10.55;3.40;;;;;;;;;;5074177;28;20060;-77
2022/01/10 09:34:50;;;;;;;6.43;2.15;;;;;;;;;;5082763;28;20040;-78
2022/01/10 09:37:19;;;;;;;6.95;2.60;;;;;;;;;;5061270;28;20044;-78
2022/01/10 09:39:48;;;;;;;12.87;3.10;;;;;;;;;;5080483;28;20036;-78
2022/01/10 09:42:17;;;;;;;4.90;2.22;;;;;;;;;;5077927;28;20032;-78
2022/01/10 09:44:47;;;;;;;8.05;3.47;;;;;;;;;;5082906;28;20505;-78
2022/01/10 09:47:17;;;;;;;6.95;2.47;;;;;;;;;;5075310;28;20059;-78
2022/01/10 09:49:48;;;;;;;4.97;2.60;;;;;;;;;;5079363;28;20542;-77
2022/01/10 09:52:17;;;;;;;6.50;3.10;;;;;;;;;;5075992;28;20061;-78
2022/01/10 09:54:46;;;;;;;9.30;3.45;;;;;;;;;;5080386;28;20044;-78
2022/01/10 09:57:16;;;;;;;7.57;2.58;;;;;;;;;;5073425;28;20068;-78
2022/01/10 09:59:48;;;;;;;6.65;2.75;;;;;;;;;;5078661;28;20036;-78
2022/01/10 10:02:20;;;;;;;9.70;2.97;;;;;;;;;;5071051;28;20060;-78
2022/01/10 10:04:53;;;;;;;8.07;3.17;;;;;;;;;;5067837;28;20121;-78
2022/01/10 10:07:24;;;;;;;10.02;2.65;;;;;;;;;;5063821;28;20036;-78
2022/01/10 10:09:52;;;;;;;7.57;3.58;;;;;;;;;;5063210;28;20037;-78
2022/01/10 10:12:21;;;;;;;10.57;4.53;;;;;;;;;;5068770;28;20049;-78
2022/01/10 10:14:52;;;;;;;7.43;3.55;;;;;;;;;;5062545;28;20495;-78
2022/01/10 10:17:22;;;;;;;5.07;2.23;;;;;;;;;;5065066;28;20470;-78
2022/01/10 10:19:52;;;;;;;6.47;2.90;;;;;;;;;;5055612;28;20048;-78
2022/01/10 10:22:25;;;;;;;10.50;4.00;;;;;;;;;;5052301;28;20060;-78
2022/01/10 10:24:54;;;;;;;12.30;2.88;;;;;;;;;;5067201;28;20051;-78
2022/01/10 10:27:24;;;;;;;9.77;2.65;;;;;;;;;;5061666;28;20044;-78
2022/01/10 10:30:16;;;;;;;6.53;2.37;;;;;;;;;;5058694;28;20044;-79
2022/01/10 10:32:47;;;;;;;10.10;3.00;;;;;;;;;;5063801;28;20302;-78
2022/01/10 10:35:17;;;;;;;7.55;2.88;;;;;;;;;;5062463;28;20048;-78
2022/01/10 10:37:48;;;;;;;7.57;3.42;;;;;;;;;;5061633;28;20754;-77
2022/01/10 10:40:18;;;;;;;7.85;2.67;;;;;;;;;;5082223;28;20048;-78
2022/01/10 10:42:47;;;;;;;14.80;3.63;;;;;;;;;;5079146;28;20044;-77
2022/01/10 10:45:17;;;;;;;5.25;2.50;;;;;;;;;;5071638;28;20049;-78
2022/01/10 10:47:46;;;;;;;8.80;2.70;;;;;;;;;;5049818;28;20052;-78
2022/01/10 10:50:15;;;;;;;8.27;3.72;;;;;;;;;;5062433;28;20510;-78
2022/01/10 10:52:45;;;;;;;8.40;3.38;;;;;;;;;;5063543;28;20512;-78
2022/01/10 10:55:39;;;;;;;7.13;2.80;;;;;;;;;;5064271;28;21548;-78
2022/01/10 10:58:09;;;;;;;8.20;2.92;;;;;;;;;;5062975;28;20083;-77
2022/01/10 11:00:40;;;;;;;6.32;3.05;;;;;;;;;;5059303;28;20418;-74
2022/01/10 11:03:12;;;;;;;9.60;3.35;;;;;;;;;;5067312;28;20041;-80
2022/01/10 11:06:13;;;;;;;8.85;3.05;;;;;;;;;;5059666;28;20044;-72
2022/01/10 11:08:46;;;;;;;6.63;2.57;;;;;;;;;;5061943;28;20048;-77
2022/01/10 11:11:16;;;;;;;8.27;3.67;;;;;;;;;;5059083;28;20131;-76
2022/01/10 11:13:47;;;;;;;13.85;3.42;;;;;;;;;;5066419;28;20037;-70
2022/01/10 11:16:18;;;;;;;10.95;4.70;;;;;;;;;;5051166;28;20064;-76
2022/01/10 11:18:50;;;;;;;9.27;2.83;;;;;;;;;;5044577;28;20065;-76
2022/01/10 11:21:19;;;;;;;10.17;3.00;;;;;;;;;;5064865;28;20047;-76
2022/01/10 11:23:50;;;;;;;9.50;3.55;;;;;;;;;;5062917;28;20040;-77
2022/01/10 11:26:19;;;;;;;9.27;3.22;;;;;;;;;;5059182;28;20044;-71
2022/01/10 11:28:50;;;;;;;10.93;3.30;;;;;;;;;;5066727;28;20048;-76
2022/01/10 11:31:22;;;;;;;8.18;3.63;;;;;;;;;;5061524;28;20053;-76
2022/01/10 11:33:52;;;;;;;7.97;3.70;;;;;;;;;;5060768;28;20511;-77
2022/01/10 11:36:24;;;;;;;9.27;3.60;;;;;;;;;;5055256;28;20099;-77
2022/01/10 11:38:53;;;;;;;7.03;2.85;;;;;;;;;;5062488;28;20051;-77
2022/01/10 11:44:23;;;;;;;10.77;3.60;;;;;;;;;;5062804;28;20463;-77
2022/01/10 11:46:59;;;;;;;7.00;2.87;;;;;;;;;;5058004;28;20075;-74
2022/01/10 11:49:30;;;;;;;8.30;3.30;;;;;;;;;;5028974;28;20037;-76
2022/01/10 11:52:02;;;;;;;8.00;2.95;;;;;;;;;;5055273;28;20626;-78
2022/01/10 11:54:32;;;;;;;7.10;3.33;;;;;;;;;;5061266;28;20093;-77
2022/01/10 11:57:01;;;;;;;7.50;3.28;;;;;;;;;;5062570;28;20037;-77
2022/01/10 11:59:31;;;;;;;13.87;3.13;;;;;;;;;;5058524;28;20048;-77
2022/01/10 12:02:05;;;;;;;6.93;3.45;;;;;;;;;;5061960;28;20052;-77
2022/01/10 12:04:36;;;;;;;7.20;3.65;;;;;;;;;;5059105;28;20056;-76
2022/01/10 12:07:06;;;;;;;5.97;3.10;;;;;;;;;;5063712;28;20048;-77
2022/01/10 12:09:35;;;;;;;12.20;3.65;;;;;;;;;;5057671;28;20044;-71
2022/01/10 12:12:09;;;;;;;10.53;3.63;;;;;;;;;;5063631;28;20102;-77
2022/01/10 12:14:38;;;;;;;8.50;3.00;;;;;;;;;;5061429;28;20048;-77
2022/01/10 12:17:09;;;;;;;9.35;3.42;;;;;;;;;;5059685;28;20072;-77
2022/01/10 12:19:39;;;;;;;7.80;3.17;;;;;;;;;;5059226;28;20052;-76
2022/01/10 12:22:09;;;;;;;10.00;2.85;;;;;;;;;;5061943;28;20040;-76
2022/01/10 12:25:03;;;;;;;6.70;2.83;;;;;;;;;;5067293;28;20044;-77
2022/01/10 12:30:26;;;;;;;7.30;2.40;;;;;;;;;;5061708;28;20048;-77
2022/01/10 12:32:57;;;;;;;8.73;3.60;;;;;;;;;;5062762;28;20072;-77
2022/01/10 12:35:26;;;;;;;7.35;2.40;;;;;;;;;;5058639;28;20079;-76
2022/01/10 12:37:57;;;;;;;6.43;2.70;;;;;;;;;;5057677;28;20136;-77
2022/01/10 12:40:31;;;;;;;8.32;2.67;;;;;;;;;;5061432;28;20052;-77
2022/01/10 12:43:02;;;;;;;5.30;2.58;;;;;;;;;;5062730;28;20064;-77
2022/01/10 12:45:35;;;;;;;7.25;3.40;;;;;;;;;;5056284;28;20048;-77
2022/01/10 12:48:06;;;;;;;8.20;3.17;;;;;;;;;;5052816;28;20041;-76
2022/01/10 12:50:35;;;;;;;11.63;3.80;;;;;;;;;;5062872;28;20044;-77
2022/01/10 12:53:04;;;;;;;8.65;3.45;;;;;;;;;;5058330;28;20491;-76
2022/01/10 12:55:34;;;;;;;12.20;3.40;;;;;;;;;;5063065;28;20056;-77
2022/01/10 12:58:06;;;;;;;6.35;2.85;;;;;;;;;;5059581;28;20036;-76
2022/01/10 13:00:35;;;;;;;10.50;3.60;;;;;;;;;;5055951;28;20477;-77
2022/01/10 13:03:08;;;;;;;6.30;2.63;;;;;;;;;;5058049;28;20045;-76
2022/01/10 13:05:37;;;;;;;6.53;2.53;;;;;;;;;;5063174;28;20087;-76
2022/01/10 13:08:06;;;;;;;9.43;3.42;;;;;;;;;;5053429;28;20125;-76
2022/01/10 13:10:38;;;;;;;8.68;3.13;;;;;;;;;;5068259;28;20526;-76
2022/01/10 13:13:07;;;;;;;7.75;3.63;;;;;;;;;;5065049;28;20051;-77
2022/01/10 13:15:38;;;;;;;5.87;2.70;;;;;;;;;;5052273;28;20041;-77
2022/01/10 13:18:12;;;;;;;6.20;3.20;;;;;;;;;;5058970;28;20122;-77
2022/01/10 13:20:43;;;;;;;8.93;3.72;;;;;;;;;;5060025;28;20094;-76
2022/01/10 13:23:16;;;;;;;5.28;2.17;;;;;;;;;;5065134;28;20440;-76
2022/01/10 13:25:46;;;;;;;6.82;2.72;;;;;;;;;;5061272;28;20124;-77
2022/01/10 13:28:16;;;;;;;10.10;3.00;;;;;;;;;;5058932;28;20040;-77
2022/01/10 13:30:50;;;;;;;9.30;2.88;;;;;;;;;;5057500;28;20067;-77
2022/01/10 13:33:21;;;;;;;7.47;2.90;;;;;;;;;;5062666;28;20051;-77
2022/01/10 13:35:58;;;;;;;7.45;2.65;;;;;;;;;;5081255;28;20056;-76
2022/01/10 13:38:31;;;;;;;4.88;2.83;;;;;;;;;;5061023;28;20048;-76
2022/01/10 13:41:01;;;;;;;7.83;3.20;;;;;;;;;;5069231;28;20039;-77
2022/01/10 13:43:33;;;;;;;11.32;3.42;;;;;;;;;;5065657;28;20144;-77
2022/01/10 13:46:07;;;;;;;6.22;2.60;;;;;;;;;;5061270;28;20083;-76
2022/01/10 13:48:44;;;;;;;4.63;2.35;;;;;;;;;;5065437;28;20048;-76
2022/01/10 13:51:22;;;;;;;9.80;3.38;;;;;;;;;;5067051;28;20040;-77
2022/01/10 13:53:53;;;;;;;9.30;2.87;;;;;;;;;;5062699;28;20057;-76
2022/01/10 13:56:23;;;;;;;5.68;2.90;;;;;;;;;;5062069;28;20052;-76
2022/01/10 13:58:54;;;;;;;6.63;3.42;;;;;;;;;;5061722;28;20494;-76
2022/01/10 14:01:28;;;;;;;8.55;3.13;;;;;;;;;;5059537;28;20110;-76
2022/01/10 14:04:00;;;;;;;8.68;3.22;;;;;;;;;;5065593;28;20495;-77
2022/01/10 14:06:53;;;;;;;8.13;3.63;;;;;;;;;;5062319;28;20047;-76
2022/01/10 14:09:23;;;;;;;8.80;3.33;;;;;;;;;;5067089;28;20471;-77
2022/01/10 14:11:53;;;;;;;6.85;3.10;;;;;;;;;;5063442;28;20055;-76
2022/01/10 14:14:46;;;;;;;10.20;2.75;;;;;;;;;;5063339;28;20117;-76
2022/01/10 14:17:15;;;;;;;8.55;3.20;;;;;;;;;;5061507;28;20081;-76
2022/01/10 14:19:47;;;;;;;7.70;2.37;;;;;;;;;;5061900;28;20043;-76
2022/01/10 14:22:17;;;;;;;10.48;3.33;;;;;;;;;;5060039;28;20119;-76
2022/01/10 14:24:46;;;;;;;5.25;2.47;;;;;;;;;;5051018;28;20033;-70
2022/01/10 14:27:15;;;;;;;8.07;2.95;;;;;;;;;;5047299;28;20044;-76
2022/01/10 14:29:44;;;;;;;8.55;3.38;;;;;;;;;;5075799;28;20037;-76
2022/01/10 14:32:13;;;;;;;9.07;3.07;;;;;;;;;;5054541;28;20441;-75
2022/01/10 14:34:43;;;;;;;6.78;2.83;;;;;;;;;;5063472;28;20057;-75
2022/01/10 14:37:13;;;;;;;9.13;3.63;;;;;;;;;;5059260;28;20124;-75
2022/01/10 14:39:41;;;;;;;9.20;3.58;;;;;;;;;;5065852;28;20051;-75
2022/01/10 14:42:10;;;;;;;6.32;3.00;;;;;;;;;;5065445;28;20528;-75
2022/01/10 14:44:39;;;;;;;6.37;2.80;;;;;;;;;;5059997;28;20086;-75
2022/01/10 14:47:08;;;;;;;7.53;2.78;;;;;;;;;;5059112;28;20052;-75
2022/01/10 14:49:37;;;;;;;10.93;2.75;;;;;;;;;;5057595;28;20066;-75
2022/01/10 14:52:07;;;;;;;5.40;2.65;;;;;;;;;;5064568;28;20044;-75
2022/01/10 14:54:37;;;;;;;7.78;2.92;;;;;;;;;;5062631;28;20570;-76
2022/01/10 14:57:08;;;;;;;5.23;2.60;;;;;;;;;;5078379;28;20053;-75
2022/01/10 14:59:39;;;;;;;5.65;2.75;;;;;;;;;;5065960;28;20040;-75
2022/01/10 15:02:09;;;;;;;8.45;2.83;;;;;;;;;;5043550;28;20057;-75
2022/01/10 15:04:39;;;;;;;6.68;2.92;;;;;;;;;;5066241;28;20096;-75
2022/01/10 15:07:07;;;;;;;8.15;3.15;;;;;;;;;;5060922;28;20044;-75
2022/01/10 15:09:37;;;;;;;7.47;3.20;;;;;;;;;;5064756;28;20080;-75
2022/01/10 15:12:07;;;;;;;8.82;3.53;;;;;;;;;;5045537;28;20059;-75
2022/01/10 15:14:36;;;;;;;5.60;2.17;;;;;;;;;;5064067;28;20045;-75
2022/01/10 15:17:05;;;;;;;7.03;3.28;;;;;;;;;;5074775;28;20049;-76
2022/01/10 15:19:34;;;;;;;8.82;3.35;;;;;;;;;;5072329;28;20044;-75
2022/01/10 15:22:03;;;;;;;11.53;3.23;;;;;;;;;;5060365;28;20033;-75
2022/01/10 15:24:33;;;;;;;4.93;2.80;;;;;;;;;;5065486;28;20053;-76
2022/01/10 15:27:07;;;;;;;6.53;3.17;;;;;;;;;;5055254;28;20040;-75
2022/01/10 15:29:37;;;;;;;9.10;3.75;;;;;;;;;;5050013;28;20037;-75
2022/01/10 15:32:06;;;;;;;6.97;3.55;;;;;;;;;;5060686;28;20055;-75
2022/01/10 15:34:35;;;;;;;7.03;3.07;;;;;;;;;;5062816;28;20135;-75
2022/01/10 15:37:04;;;;;;;8.15;3.83;;;;;;;;;;5050594;28;20414;-74
2022/01/10 15:39:35;;;;;;;7.80;3.30;;;;;;;;;;5058859;28;20111;-75
2022/01/10 15:42:28;;;;;;;12.18;3.35;;;;;;;;;;5067660;28;20051;-70
2022/01/10 15:44:58;;;;;;;8.50;3.65;;;;;;;;;;5065824;28;20033;-74
2022/01/10 15:47:27;;;;;;;8.33;3.30;;;;;;;;;;5058195;28;20052;-74
2022/01/10 15:49:56;;;;;;;4.95;2.88;;;;;;;;;;5057157;28;20052;-74
2022/01/10 15:52:50;;;;;;;5.72;2.65;;;;;;;;;;5062042;28;20053;-74
2022/01/10 15:55:44;;;;;;;7.95;2.67;;;;;;;;;;5065293;28;20045;-74
2022/01/10 15:58:13;;;;;;;6.53;3.17;;;;;;;;;;5081383;28;20059;-74
2022/01/10 16:00:47;;;;;;;7.03;2.30;;;;;;;;;;5074623;28;20052;-71
2022/01/10 16:03:17;;;;;;;8.48;3.28;;;;;;;;;;5070189;28;20067;-75
2022/01/10 16:05:49;;;;;;;7.40;3.35;;;;;;;;;;5062084;28;21343;-75
2022/01/10 16:08:18;;;;;;;7.20;2.83;;;;;;;;;;5059296;28;20115;-75
2022/01/10 16:10:50;;;;;;;4.53;2.75;;;;;;;;;;5063038;28;20071;-75
2022/01/10 16:13:20;;;;;;;8.30;2.30;;;;;;;;;;5059197;28;20056;-75
2022/01/10 16:15:51;;;;;;;6.78;3.47;;;;;;;;;;5075179;28;20088;-75
2022/01/10 16:18:20;;;;;;;6.07;2.75;;;;;;;;;;5045984;28;20044;-75
2022/01/10 16:20:50;;;;;;;10.93;3.05;;;;;;;;;;5066973;28;20090;-76
2022/01/10 16:23:19;;;;;;;9.50;3.50;;;;;;;;;;5075975;28;20048;-75
2022/01/10 16:25:48;;;;;;;5.43;2.97;;;;;;;;;;5045071;28;20090;-75
2022/01/10 16:31:13;;;;;;;8.90;3.47;;;;;;;;;;5053607;28;20135;-76
2022/01/10 16:33:42;;;;;;;10.10;4.07;;;;;;;;;;5056275;28;20037;-76
2022/01/10 16:36:13;;;;;;;10.18;3.47;;;;;;;;;;5061677;28;20098;-75
2022/01/10 16:38:42;;;;;;;9.37;3.30;;;;;;;;;;5064097;28;20188;-76
2022/01/10 16:41:14;;;;;;;8.85;2.92;;;;;;;;;;5059842;28;20048;-75
2022/01/10 16:44:12;;;;;;;6.22;2.53;;;;;;;;;;5058213;28;20101;-75
2022/01/10 16:46:46;;;;;;;6.60;3.53;;;;;;;;;;5056331;28;20055;-76
2022/01/10 16:49:15;;;;;;;8.30;3.55;;;;;;;;;;5063478;28;20095;-76
2022/01/10 16:51:45;;;;;;;8.20;3.43;;;;;;;;;;5062736;28;20053;-75
2022/01/10 16:54:39;;;;;;;10.15;3.45;;;;;;;;;;5064355;28;20056;-76
2022/01/10 16:57:09;;;;;;;8.88;3.08;;;;;;;;;;5059907;28;20048;-76
2022/01/10 16:59:40;;;;;;;9.40;4.10;;;;;;;;;;5063638;28;20127;-76
2022/01/10 17:02:12;;;;;;;10.27;3.97;;;;;;;;;;5052226;28;20061;-76
2022/01/10 17:04:42;;;;;;;14.20;3.47;;;;;;;;;;5061501;28;20090;-76
2022/01/10 17:07:11;;;;;;;8.43;3.85;;;;;;;;;;5060618;28;20033;-75
2022/01/10 17:09:43;;;;;;;9.57;3.67;;;;;;;;;;5063745;28;20115;-76
2022/01/10 17:12:33;;;;;;;12.20;3.72;;;;;;;;;;5072606;28;20498;-76
2022/01/10 17:15:02;;;;;;;9.18;3.70;;;;;;;;;;5063932;28;20051;-76
2022/01/10 17:17:33;;;;;;;8.90;3.87;;;;;;;;;;5064556;28;20056;-72
2022/01/10 17:20:02;;;;;;;13.75;4.68;;;;;;;;;;5066073;28;20049;-72
2022/01/10 17:22:31;;;;;;;9.13;3.45;;;;;;;;;;5066411;28;20131;-71
2022/01/10 17:25:00;;;;;;;7.85;3.42;;;;;;;;;;5079300;28;20060;-76
2022/01/10 20:45:53;;;;;;;8.55;4.22;;;;;;;;;;5025108;28;20073;-95
2022/01/10 20:48:39;;;;;;;13.23;4.60;;;;;;;;;;5010443;28;20114;-95
2022/01/10 20:51:12;;;;;;;18.75;4.70;;;;;;;;;;4999480;28;20141;-95
2022/01/10 20:53:45;;;;;;;10.32;5.35;;;;;;;;;;5028879;28;20419;-94
2022/01/10 20:56:16;;;;;;;12.98;5.05;;;;;;;;;;5002181;28;20049;-96
2022/01/10 20:58:50;;;;;;;11.73;5.55;;;;;;;;;;5010905;28;20070;-95
2022/01/10 21:01:26;;;;;;;12.50;4.27;;;;;;;;;;5007662;28;20594;-95
2022/01/10 21:03:56;;;;;;;16.30;5.10;;;;;;;;;;5009449;28;20050;-94
2022/01/10 21:06:28;;;;;;;11.70;5.40;;;;;;;;;;5013887;28;20054;-95
2022/01/10 21:09:16;;;;;;;12.52;4.35;;;;;;;;;;5014013;28;20069;-96
2022/01/10 21:11:50;;;;;;;13.85;5.28;;;;;;;;;;5010643;28;20473;-94
2022/01/10 21:14:53;;;;;;;9.33;5.33;;;;;;;;;;5016345;28;20447;-96
2022/01/10 21:17:30;;;;;;;15.15;5.03;;;;;;;;;;5025230;28;20061;-96
2022/01/10 21:20:08;;;;;;;7.82;4.40;;;;;;;;;;5001804;28;20042;-96
2022/01/10 21:22:47;;;;;;;13.93;4.88;;;;;;;;;;5004307;28;20038;-96
2022/01/10 21:25:21;;;;;;;10.55;4.57;;;;;;;;;;5001499;28;20048;-96
2022/01/10 21:27:53;;;;;;;11.40;4.90;;;;;;;;;;5004622;28;20084;-96
2022/01/10 21:30:26;;;;;;;11.20;5.45;;;;;;;;;;5000868;28;20443;-96
2022/01/10 21:33:00;;;;;;;16.23;5.22;;;;;;;;;;5016087;28;20440;-96
2022/01/10 21:35:49;;;;;;;11.70;4.78;;;;;;;;;;4998448;28;20057;-96
2022/01/10 21:38:28;;;;;;;18.25;6.75;;;;;;;;;;5003661;28;20038;-96
2022/01/10 21:41:00;;;;;;;7.27;3.60;;;;;;;;;;4994289;28;20050;-96
2022/01/10 21:43:35;;;;;;;11.63;4.78;;;;;;;;;;4995312;28;20142;-96
2022/01/10 21:46:08;;;;;;;12.88;5.53;;;;;;;;;;4996765;28;20053;-96
2022/01/10 21:48:39;;;;;;;14.77;6.10;;;;;;;;;;4991073;28;20037;-96
2022/01/10 21:51:09;;;;;;;14.40;6.22;;;;;;;;;;5023767;28;20233;-96
2022/01/10 21:53:40;;;;;;;10.33;5.53;;;;;;;;;;5008921;28;20038;-96
2022/01/10 21:56:12;;;;;;;16.50;4.97;;;;;;;;;;5043516;28;20030;-96
2022/01/10 22:01:37;;;;;;;14.07;6.40;;;;;;;;;;5035683;28;20445;-96
2022/01/10 22:09:53;;;;;;;14.93;6.13;;;;;;;;;;5008117;28;20041;-96
2022/01/10 22:12:24;;;;;;;9.32;5.43;;;;;;;;;;5010844;28;20049;-95
2022/01/10 22:14:55;;;;;;;14.38;6.03;;;;;;;;;;5013493;28;20045;-95
2022/01/10 22:17:27;;;;;;;12.27;5.43;;;;;;;;;;5023637;28;20049;-96
2022/01/10 22:20:01;;;;;;;14.03;5.60;;;;;;;;;;5009989;28;20033;-95
2022/01/10 22:22:31;;;;;;;16.13;5.00;;;;;;;;;;5031011;28;20109;-95
2022/01/10 22:25:02;;;;;;;10.52;5.28;;;;;;;;;;5029802;28;20040;-95
2022/01/10 22:27:33;;;;;;;11.90;5.40;;;;;;;;;;5015732;28;20030;-95
2022/01/10 22:33:14;;;;;;;10.07;5.27;;;;;;;;;;5029506;28;20206;-96
2022/01/10 22:35:46;;;;;;;12.82;5.47;;;;;;;;;;5044017;28;20030;-96
2022/01/10 22:38:18;;;;;;;13.77;4.90;;;;;;;;;;5029868;28;20032;-96
2022/01/10 22:40:49;;;;;;;12.93;5.15;;;;;;;;;;5016757;28;20050;-96
2022/01/10 22:43:23;;;;;;;13.55;4.85;;;;;;;;;;5010520;28;20034;-94
2022/01/10 22:45:54;;;;;;;11.30;5.30;;;;;;;;;;5013293;28;20038;-95
2022/01/10 22:48:25;;;;;;;16.95;6.65;;;;;;;;;;5011815;28;20039;-96
2022/01/10 22:50:57;;;;;;;13.43;5.72;;;;;;;;;;5013872;28;20052;-95
2022/01/10 22:53:27;;;;;;;12.57;5.45;;;;;;;;;;4998536;28;20132;-96
2022/01/10 22:55:58;;;;;;;16.52;4.95;;;;;;;;;;5002629;28;20064;-95
2022/01/10 22:58:32;;;;;;;12.17;4.37;;;;;;;;;;5014247;28;20053;-95
2022/01/10 23:01:05;;;;;;;13.68;5.18;;;;;;;;;;4995983;28;20085;-96
2022/01/10 23:03:35;;;;;;;14.98;5.75;;;;;;;;;;4998610;28;20041;-96
2022/01/10 23:06:12;;;;;;;10.80;4.88;;;;;;;;;;5008923;28;20047;-95
2022/01/10 23:11:25;;;;;;;10.60;4.63;;;;;;;;;;4998665;28;20132;-96
2022/01/10 23:13:55;;;;;;;14.05;4.95;;;;;;;;;;5013644;28;20102;-95
2022/01/10 23:16:29;;;;;;;13.07;6.25;;;;;;;;;;5022116;28;20154;-96
2022/01/10 23:18:59;;;;;;;12.80;5.13;;;;;;;;;;5013858;28;20089;-96
2022/01/10 23:21:33;;;;;;;11.02;5.63;;;;;;;;;;4997395;28;20118;-96
2022/01/10 23:24:28;;;;;;;14.17;6.50;;;;;;;;;;5013707;28;20132;-95
2022/01/10 23:27:14;;;;;;;15.15;5.78;;;;;;;;;;5010527;28;20046;-96
2022/01/10 23:29:53;;;;;;;11.98;4.55;;;;;;;;;;5013108;28;20065;-96
2022/01/10 23:32:26;;;;;;;11.23;5.70;;;;;;;;;;5034201;28;20069;-96
2022/01/10 23:35:11;;;;;;;9.50;4.75;;;;;;;;;;5021299;28;20053;-96
2022/01/10 23:44:25;;;;;;;9.63;4.10;;;;;;;;;;5021608;28;20061;-96
2022/01/10 23:46:55;;;;;;;10.65;4.53;;;;;;;;;;4994166;28;20065;-96
2022/01/10 23:49:25;;;;;;;12.90;4.95;;;;;;;;;;4993729;28;20429;-96
2022/01/10 23:51:55;;;;;;;13.97;4.90;;;;;;;;;;4995485;28;20113;-96
2022/01/10 23:54:25;;;;;;;11.38;4.20;;;;;;;;;;4992632;28;20050;-96
2022/01/10 23:56:56;;;;;;;13.05;4.85;;;;;;;;;;5012834;28;20412;-95
2022/01/10 23:59:26;;;;;;;11.18;4.15;;;;;;;;;;4995446;28;20059;-96
